Terminal Aerodrome Forecast
Issued by NWS Des Moines, IA

Home | Current Version | Previous Version | Text Only | Print | Product List | Glossary On
Versions: 1 2 3 4 5 6 7 8 9 10 11 12 13 14 15 16 17 18 19 20 21 22 23 24 25 26 27 28 29 30 31 32 33 34 35 36
000
FTUS43 KDMX 232340
TAFALO
TAF
KALO 232340Z 2400/2424 01007KT P6SM VCSH SCT025 BKN050
     FM240300 35012KT P6SM VCSH BKN015 OVC030
     FM240800 36011KT P6SM SCT008 OVC018
     FM241600 01009KT P6SM OVC025
     FM242300 02007KT P6SM BKN040=

USA.gov is the U.S. government's official web portal to all federal, state and local government web resources and services.